Alta Sierra, California
Current Conditions -  °F | °C
As of 8:40 PM on Saturday 22 Nov 2014 (Local Time) from KGOO Reporting Station
Clear Clear  
Wind Chill:   Ceiling: Unl
Heat Index:   Visibility: 10mi
Dew Point:   Wind: 3mph
Humidity: 100%   Direction: 20°NNE
Pressure: 30.21"   Gusts: NA
Location:  39.2183°N, 120.924°W
Report Text: KGOO 230440Z AUTO 02003KT 10SM CLR 04/04 A3021 RMK AO1
Loading
Personal Weather Stations






























Interactive Weather Map New forecast layout! Learn more

10-Day Weather Forecast

Advertisements
Track Severe Weather on mobile